Time;durP1;ratioP1;P1;durP2;ratioP2;P2;SDS_P1;SDS_P2;PMS_P1;PMS_P2;Temp;Humidity;BMP_temperature;BMP_pressure;BME280_temperature;BME280_humidity;BME280_pressure;Samples;Min_cycle;Max_cycle;Signal;HPM_P1;HPM_P2
2023/05/04 07:13:19;;;;;;;;;;;;;;;14.02;54.69;100297.34;1086802;54;19946;-79
2023/05/04 07:15:57;;;;;;;;;;;;;;;14.06;54.57;100298.69;1087269;47;19939;-78
2023/05/04 07:17:04;;;;;;;;;;;;;;;14.09;54.43;100295.66;1086571;54;20004;-79
2023/05/04 07:18:08;;;;;;;;;;;;;;;14.19;54.50;100298.25;1088378;46;19938;-81
2023/05/04 07:19:22;;;;;;;;;;;;;;;14.35;54.00;100292.09;1086786;54;19942;-77
2023/05/04 07:20:24;;;;;;;;;;;;;;;14.44;54.01;100291.09;1086869;54;19961;-77
2023/05/04 07:40:52;;;;;;;;;;;;;;;16.23;50.23;100285.91;1085652;54;19938;-79
2023/05/04 07:41:54;;;;;;;;;;;;;;;16.27;49.72;100276.44;1086512;54;19938;-76
2023/05/04 07:42:59;;;;;;;;;;;;;;;16.33;49.70;100280.28;1086450;54;19938;-76
2023/05/04 07:44:04;;;;;;;;;;;;;;;16.54;49.07;100276.97;1086400;47;19950;-80
2023/05/04 07:45:08;;;;;;;;;;;;;;;16.74;49.21;100277.34;1086402;54;19943;-76
2023/05/04 07:46:12;;;;;;;;;;;;;;;16.69;48.51;100272.50;1086267;54;19949;-75
2023/05/04 07:47:16;;;;;;;;;;;;;;;16.72;48.52;100279.38;1085895;54;20002;-75
2023/05/04 07:48:18;;;;;;;;;;;;;;;16.74;48.32;100271.09;1085431;54;19950;-75
2023/05/04 07:49:21;;;;;;;;;;;;;;;16.65;49.05;100273.84;1085770;54;19951;-75
2023/05/04 07:50:25;;;;;;;;;;;;;;;16.80;48.91;100275.78;1085323;54;19958;-76
2023/05/04 07:51:29;;;;;;;;;;;;;;;16.78;48.45;100272.44;1085495;54;19950;-75
2023/05/04 07:52:33;;;;;;;;;;;;;;;16.78;48.87;100265.16;1085670;54;20035;-75
2023/05/04 07:53:34;;;;;;;;;;;;;;;16.82;48.68;100263.78;1085762;54;19943;-76
2023/05/04 07:54:38;;;;;;;;;;;;;;;16.88;48.50;100264.94;1086184;54;19942;-76
2023/05/04 07:55:39;;;;;;;;;;;;;;;16.97;48.52;100268.41;1086365;54;19943;-76
2023/05/04 07:56:46;;;;;;;;;;;;;;;16.95;48.24;100271.31;1085741;54;19943;-76
2023/05/04 07:57:50;;;;;;;;;;;;;;;17.09;48.51;100266.97;1086793;39;20247;-75
2023/05/04 07:58:54;;;;;;;;;;;;;;;17.27;47.77;100269.34;1085820;54;19950;-73
2023/05/04 07:59:59;;;;;;;;;;;;;;;17.36;47.64;100256.59;1086457;46;19962;-77
2023/05/04 08:01:00;;;;;;;;;;;;;;;17.22;47.69;100263.66;1085523;54;19957;-76
2023/05/04 08:02:04;;;;;;;;;;;;;;;17.29;47.53;100255.66;1086711;54;19954;-75
2023/05/04 08:03:05;;;;;;;;;;;;;;;17.46;47.52;100264.44;1086673;54;19949;-75
2023/05/04 08:04:09;;;;;;;;;;;;;;;17.56;47.34;100258.75;1086729;54;19958;-75
2023/05/04 08:05:12;;;;;;;;;;;;;;;17.47;47.47;100260.72;1086566;54;19962;-75
2023/05/04 08:06:13;;;;;;;;;;;;;;;17.42;47.16;100255.88;1086711;54;19943;-78
2023/05/04 08:07:21;;;;;;;;;;;;;;;17.47;47.59;100258.03;1086701;54;19958;-76
2023/05/04 08:08:22;;;;;;;;;;;;;;;17.44;47.34;100261.06;1086649;54;20343;-76
2023/05/04 08:09:27;;;;;;;;;;;;;;;17.36;47.23;100259.28;1086726;54;19974;-76
2023/05/04 08:10:28;;;;;;;;;;;;;;;17.47;47.23;100260.72;1086654;54;19957;-77
2023/05/04 08:11:33;;;;;;;;;;;;;;;17.50;47.04;100252.22;1086480;54;19990;-77
2023/05/04 08:12:43;;;;;;;;;;;;;;;17.61;47.02;100259.06;1086593;54;20022;-78
2023/05/04 08:13:49;;;;;;;;;;;;;;;17.62;46.84;100252.59;1086721;54;19949;-77
2023/05/04 08:14:53;;;;;;;;;;;;;;;17.73;47.03;100249.44;1086826;46;19990;-77
2023/05/04 08:16:00;;;;;;;;;;;;;;;17.89;46.67;100248.41;1086394;54;19962;-77
2023/05/04 08:17:03;;;;;;;;;;;;;;;17.93;46.09;100241.59;1086536;54;19950;-76
2023/05/04 08:18:07;;;;;;;;;;;;;;;18.06;46.41;100237.41;1086292;54;19961;-76
2023/05/04 08:19:09;;;;;;;;;;;;;;;18.16;46.11;100239.81;1085990;54;20799;-78
2023/05/04 08:20:17;;;;;;;;;;;;;;;18.22;45.56;100236.34;1087054;46;19951;-75
2023/05/04 08:21:18;;;;;;;;;;;;;;;18.31;45.30;100229.78;1085831;54;19970;-75
2023/05/04 08:22:22;;;;;;;;;;;;;;;18.52;45.31;100231.66;1085483;54;20854;-75
2023/05/04 08:23:29;;;;;;;;;;;;;;;18.78;44.85;100230.28;1085570;54;20461;-77
2023/05/04 08:24:32;;;;;;;;;;;;;;;18.74;44.31;100228.97;1085909;54;19946;-75
2023/05/04 08:25:36;;;;;;;;;;;;;;;18.67;44.40;100228.06;1085921;54;19950;-76
2023/05/04 08:26:40;;;;;;;;;;;;;;;18.68;44.58;100225.16;1085531;54;20536;-76
2023/05/04 08:27:45;;;;;;;;;;;;;;;18.74;44.59;100222.72;1085336;54;19950;-76
2023/05/04 08:28:48;;;;;;;;;;;;;;;18.85;44.60;100214.91;1084924;54;19950;-75
2023/05/04 08:29:50;;;;;;;;;;;;;;;18.81;44.09;100218.19;1085951;54;19954;-76
2023/05/04 08:30:54;;;;;;;;;;;;;;;18.75;44.53;100219.00;1085679;54;20726;-77
2023/05/04 08:31:55;;;;;;;;;;;;;;;18.91;44.39;100223.28;1086187;54;20405;-79
2023/05/04 08:32:59;;;;;;;;;;;;;;;18.88;44.08;100219.09;1086659;54;19943;-76
2023/05/04 08:34:00;;;;;;;;;;;;;;;18.99;44.11;100224.00;1084660;54;19970;-78
2023/05/04 08:35:04;;;;;;;;;;;;;;;19.20;43.67;100216.88;1082309;54;20515;-78
2023/05/04 08:36:09;;;;;;;;;;;;;;;19.40;42.69;100216.19;1083761;54;19973;-80
2023/05/04 08:37:13;;;;;;;;;;;;;;;19.73;42.65;100212.81;1084007;39;20361;-79
2023/05/04 08:38:14;;;;;;;;;;;;;;;20.03;42.46;100205.25;1083672;54;19973;-81
2023/05/04 08:39:19;;;;;;;;;;;;;;;20.13;41.52;100210.28;1083346;54;21051;-81
2023/05/04 08:40:22;;;;;;;;;;;;;;;20.13;42.28;100206.72;1083638;54;19970;-81
2023/05/04 08:41:28;;;;;;;;;;;;;;;20.27;41.71;100216.59;1082825;54;19951;-80
2023/05/04 08:42:31;;;;;;;;;;;;;;;20.28;41.21;100218.28;1083013;46;19951;-79
2023/05/04 08:43:39;;;;;;;;;;;;;;;20.38;40.72;100202.44;1082760;39;20251;-79
2023/05/04 08:44:57;;;;;;;;;;;;;;;20.49;40.90;100203.69;1082318;54;19981;-79
2023/05/04 08:45:59;;;;;;;;;;;;;;;20.51;40.59;100198.91;1081601;54;19957;-76
2023/05/04 08:47:04;;;;;;;;;;;;;;;20.51;40.37;100198.06;1084129;54;19951;-80
2023/05/04 08:48:06;;;;;;;;;;;;;;;20.28;40.69;100210.13;1084845;46;20820;-79
2023/05/04 08:49:11;;;;;;;;;;;;;;;20.27;41.02;100206.56;1084952;54;19957;-80
2023/05/04 08:50:12;;;;;;;;;;;;;;;20.25;41.33;100203.25;1084731;54;19962;-82
2023/05/04 08:51:17;;;;;;;;;;;;;;;20.18;40.96;100212.41;1084985;54;19957;-81
2023/05/04 08:52:21;;;;;;;;;;;;;;;20.16;40.65;100203.63;1085171;39;20429;-80
2023/05/04 08:53:23;;;;;;;;;;;;;;;20.23;40.07;100199.88;1084288;54;19946;-79
2023/05/04 08:54:27;;;;;;;;;;;;;;;20.39;40.36;100203.25;1085008;54;19951;-81
2023/05/04 08:55:33;;;;;;;;;;;;;;;20.52;40.09;100197.88;1085288;54;19952;-79
2023/05/04 08:56:37;;;;;;;;;;;;;;;20.41;40.18;100195.75;1085046;54;19950;-80
2023/05/04 08:57:42;;;;;;;;;;;;;;;20.42;40.18;100197.44;1084384;54;19950;-79
2023/05/04 08:58:49;;;;;;;;;;;;;;;20.22;40.23;100200.06;1083933;54;19947;-78
2023/05/04 08:59:53;;;;;;;;;;;;;;;20.26;40.43;100195.94;1083123;54;19965;-78
2023/05/04 09:00:55;;;;;;;;;;;;;;;20.56;40.65;100193.66;1086181;54;19943;-81
2023/05/04 09:02:00;;;;;;;;;;;;;;;20.61;40.16;100184.09;1086025;54;19942;-79
2023/05/04 09:03:02;;;;;;;;;;;;;;;20.60;40.10;100187.84;1084074;54;19947;-78
2023/05/04 09:04:07;;;;;;;;;;;;;;;20.62;40.45;100188.47;1084690;54;19993;-81
2023/05/04 09:05:12;;;;;;;;;;;;;;;20.70;40.20;100183.66;1084777;54;19953;-77
2023/05/04 09:06:13;;;;;;;;;;;;;;;20.83;39.71;100182.84;1084387;54;19957;-77
2023/05/04 09:07:18;;;;;;;;;;;;;;;21.09;39.54;100174.88;1084305;54;19950;-79
2023/05/04 09:08:19;;;;;;;;;;;;;;;21.36;39.50;100181.13;1083956;54;19981;-76
2023/05/04 09:09:23;;;;;;;;;;;;;;;21.55;38.59;100173.94;1083723;54;19950;-77
2023/05/04 09:10:24;;;;;;;;;;;;;;;21.70;37.59;100181.88;1084070;54;19951;-77
2023/05/04 09:11:28;;;;;;;;;;;;;;;21.92;37.87;100171.53;1084165;54;19981;-76
2023/05/04 09:12:30;;;;;;;;;;;;;;;22.08;36.96;100166.66;1084254;54;19981;-79
2023/05/04 09:13:34;;;;;;;;;;;;;;;22.32;37.05;100158.75;1084353;54;19951;-76
2023/05/04 09:14:41;;;;;;;;;;;;;;;22.43;36.60;100161.63;1085460;54;19946;-79
2023/05/04 09:15:42;;;;;;;;;;;;;;;22.35;35.54;100158.31;1086325;54;19953;-76
2023/05/04 09:16:45;;;;;;;;;;;;;;;22.44;35.16;100162.47;1086942;39;20341;-78
2023/05/04 09:17:53;;;;;;;;;;;;;;;22.29;34.83;100158.13;1086397;54;19954;-78
2023/05/04 09:18:57;;;;;;;;;;;;;;;22.51;34.31;100160.53;1088820;39;20757;-79
2023/05/04 09:20:02;;;;;;;;;;;;;;;22.64;33.96;100166.94;1086549;31;20531;-78
2023/05/04 09:21:06;;;;;;;;;;;;;;;22.79;33.23;100152.97;1084279;54;19946;-78
2023/05/04 09:22:16;;;;;;;;;;;;;;;22.54;32.73;100165.53;1084417;54;19989;-79
2023/05/04 09:23:21;;;;;;;;;;;;;;;22.82;33.15;100158.81;1084818;54;19958;-76
2023/05/04 09:24:28;;;;;;;;;;;;;;;22.82;32.35;100156.09;1084667;54;19951;-76
2023/05/04 09:25:29;;;;;;;;;;;;;;;22.90;32.15;100153.06;1084801;54;19951;-77
2023/05/04 09:26:34;;;;;;;;;;;;;;;23.13;32.45;100143.44;1084722;54;19954;-78
2023/05/04 09:27:38;;;;;;;;;;;;;;;23.20;32.20;100152.41;1084712;54;19950;-78
2023/05/04 09:28:42;;;;;;;;;;;;;;;23.44;31.48;100152.56;1084236;54;19946;-78
2023/05/04 09:29:54;;;;;;;;;;;;;;;23.51;31.45;100157.94;1084609;54;19956;-79
2023/05/04 09:30:58;;;;;;;;;;;;;;;23.29;30.68;100154.81;1085009;54;20531;-78
2023/05/04 09:32:03;;;;;;;;;;;;;;;23.40;30.21;100154.09;1086112;39;20431;-78
2023/05/04 09:33:07;;;;;;;;;;;;;;;23.45;30.75;100159.66;1085753;54;19943;-79
2023/05/04 09:34:08;;;;;;;;;;;;;;;23.44;29.99;100158.00;1086143;46;19958;-78
2023/05/04 09:35:12;;;;;;;;;;;;;;;23.51;30.34;100161.50;1086039;54;19951;-79
2023/05/04 09:36:13;;;;;;;;;;;;;;;23.55;30.25;100158.31;1088824;39;20487;-74
2023/05/04 09:37:19;;;;;;;;;;;;;;;23.62;30.37;100148.13;1086832;54;19942;-75
2023/05/04 09:38:24;;;;;;;;;;;;;;;23.53;29.54;100148.44;1086953;54;19946;-75
2023/05/04 09:39:28;;;;;;;;;;;;;;;23.23;29.22;100151.09;1086855;54;19954;-75
2023/05/04 09:40:30;;;;;;;;;;;;;;;23.46;30.19;100144.97;1086799;54;19950;-75
2023/05/04 09:41:34;;;;;;;;;;;;;;;23.40;30.51;100140.44;1086824;54;20408;-75
2023/05/04 09:42:38;;;;;;;;;;;;;;;23.51;29.93;100142.41;1086865;46;20022;-75
2023/05/04 09:43:39;;;;;;;;;;;;;;;23.57;30.30;100139.81;1086755;54;19942;-75
2023/05/04 09:44:43;;;;;;;;;;;;;;;23.38;30.25;100134.38;1086662;54;19971;-77
2023/05/04 09:45:50;;;;;;;;;;;;;;;23.52;29.99;100137.78;1086859;54;19943;-76
2023/05/04 09:46:52;;;;;;;;;;;;;;;23.62;30.47;100137.22;1086904;54;19942;-77
2023/05/04 09:47:57;;;;;;;;;;;;;;;23.51;29.83;100136.97;1086640;54;19953;-77
2023/05/04 09:49:01;;;;;;;;;;;;;;;23.79;30.24;100145.63;1086616;54;19942;-79
2023/05/04 09:50:16;;;;;;;;;;;;;;;23.73;29.60;100138.38;1087051;39;20397;-80
2023/05/04 09:51:19;;;;;;;;;;;;;;;23.67;29.04;100140.94;1086324;54;20477;-78
2023/05/04 09:52:23;;;;;;;;;;;;;;;23.67;29.33;100129.19;1085607;54;19972;-78
2023/05/04 09:53:26;;;;;;;;;;;;;;;23.66;29.06;100130.25;1085729;54;19950;-77
2023/05/04 09:54:31;;;;;;;;;;;;;;;23.72;29.24;100134.78;1085106;54;20101;-77
2023/05/04 09:55:32;;;;;;;;;;;;;;;23.72;29.17;100128.50;1085068;54;19950;-79
2023/05/04 09:56:40;;;;;;;;;;;;;;;23.66;29.31;100130.25;1085293;39;20550;-77
2023/05/04 09:57:41;;;;;;;;;;;;;;;23.67;29.26;100127.28;1084335;54;20026;-78
2023/05/04 09:58:47;;;;;;;;;;;;;;;23.75;29.31;100120.69;1085164;54;19973;-78
2023/05/04 09:59:53;;;;;;;;;;;;;;;23.80;29.04;100123.59;1084923;54;19966;-78
2023/05/04 10:00:57;;;;;;;;;;;;;;;23.76;28.62;100122.38;1084995;54;19982;-77
2023/05/04 10:02:01;;;;;;;;;;;;;;;23.92;28.74;100114.59;1084477;54;19946;-78
2023/05/04 10:03:07;;;;;;;;;;;;;;;23.99;28.40;100108.00;1084484;54;20050;-78
2023/05/04 10:04:11;;;;;;;;;;;;;;;24.18;28.85;100113.41;1084809;54;19947;-77
2023/05/04 10:05:13;;;;;;;;;;;;;;;24.23;28.90;100115.44;1085314;54;19951;-76
2023/05/04 10:06:17;;;;;;;;;;;;;;;24.14;28.88;100107.59;1085948;31;20658;-76
2023/05/04 10:07:19;;;;;;;;;;;;;;;24.17;28.80;100105.47;1084769;54;19973;-79
2023/05/04 10:08:23;;;;;;;;;;;;;;;24.37;29.04;100108.69;1085159;54;20055;-79
2023/05/04 10:09:27;;;;;;;;;;;;;;;24.23;28.60;100115.44;1085190;54;19966;-79
2023/05/04 10:10:30;;;;;;;;;;;;;;;24.17;28.47;100114.47;1085285;54;20539;-77
2023/05/04 10:11:34;;;;;;;;;;;;;;;24.25;28.87;100114.13;1084893;54;19973;-78
2023/05/04 10:12:35;;;;;;;;;;;;;;;24.08;28.38;100107.69;1084919;54;19969;-78
2023/05/04 10:13:39;;;;;;;;;;;;;;;24.34;28.80;100108.31;1084350;54;19966;-78
2023/05/04 10:14:41;;;;;;;;;;;;;;;24.32;28.27;100102.28;1084332;54;19974;-76
2023/05/04 10:15:50;;;;;;;;;;;;;;;24.35;28.63;100102.66;1084855;54;20496;-78
2023/05/04 10:17:01;;;;;;;;;;;;;;;24.60;28.18;100101.59;1085010;54;19978;-78
2023/05/04 10:18:15;;;;;;;;;;;;;;;24.58;28.15;100107.31;1085010;54;19962;-78
2023/05/04 10:19:23;;;;;;;;;;;;;;;24.65;28.44;100104.47;1085190;54;19957;-77
2023/05/04 10:20:33;;;;;;;;;;;;;;;24.57;27.98;100100.19;1085506;54;19953;-77
2023/05/04 10:21:46;;;;;;;;;;;;;;;24.67;28.27;100094.09;1085584;54;19947;-78
2023/05/04 10:23:02;;;;;;;;;;;;;;;24.47;28.57;100101.84;1084864;54;20050;-79
2023/05/04 10:24:19;;;;;;;;;;;;;;;24.58;28.26;100095.53;1084780;54;19950;-77
2023/05/04 10:25:39;;;;;;;;;;;;;;;24.66;28.02;100097.91;1083759;54;20648;-78
2023/05/04 10:26:52;;;;;;;;;;;;;;;24.74;28.79;100096.75;1083895;54;20002;-78
2023/05/04 10:28:02;;;;;;;;;;;;;;;24.88;28.40;100089.16;1084068;54;19947;-79
2023/05/04 10:29:11;;;;;;;;;;;;;;;24.84;28.29;100093.44;1084171;54;20006;-78
2023/05/04 10:30:17;;;;;;;;;;;;;;;24.98;28.65;100096.75;1084755;54;19947;-79
2023/05/04 10:31:18;;;;;;;;;;;;;;;25.07;28.63;100087.94;1084873;54;19973;-77
2023/05/04 10:32:25;;;;;;;;;;;;;;;25.15;28.16;100091.38;1085562;54;19958;-79
2023/05/04 10:33:36;;;;;;;;;;;;;;;25.15;27.94;100099.56;1085882;54;19942;-76
2023/05/04 10:34:40;;;;;;;;;;;;;;;25.11;28.21;100082.00;1086537;54;20017;-77
2023/05/04 10:35:49;;;;;;;;;;;;;;;25.14;28.55;100085.09;1086817;54;19947;-79
2023/05/04 10:36:53;;;;;;;;;;;;;;;24.96;28.43;100086.03;1087596;46;19949;-81
2023/05/04 10:37:54;;;;;;;;;;;;;;;24.94;28.14;100082.72;1087231;54;19978;-79
2023/05/04 10:38:58;;;;;;;;;;;;;;;24.84;28.27;100080.59;1086955;54;19965;-78
2023/05/04 10:40:04;;;;;;;;;;;;;;;24.97;28.19;100076.78;1086778;54;19943;-77
2023/05/04 10:41:14;;;;;;;;;;;;;;;24.84;27.91;100082.50;1086768;54;19942;-77
2023/05/04 10:42:18;;;;;;;;;;;;;;;24.45;28.39;100081.03;1086344;54;19973;-78
2023/05/04 10:43:22;;;;;;;;;;;;;;;24.65;28.27;100081.75;1086988;54;19951;-79
2023/05/04 10:44:26;;;;;;;;;;;;;;;24.27;28.58;100089.34;1087031;54;19950;-79
2023/05/04 10:45:36;;;;;;;;;;;;;;;23.97;29.05;100077.38;1086995;54;19943;-77
2023/05/04 10:46:39;;;;;;;;;;;;;;;24.22;29.13;100078.25;1087082;54;19943;-80
2023/05/04 10:47:46;;;;;;;;;;;;;;;24.37;28.98;100091.47;1087148;54;19943;-80
2023/05/04 10:48:47;;;;;;;;;;;;;;;24.57;28.54;100072.84;1086783;54;19998;-79
2023/05/04 10:50:01;;;;;;;;;;;;;;;24.68;28.66;100065.75;1087035;46;19946;-79
2023/05/04 10:51:03;;;;;;;;;;;;;;;24.63;28.40;100076.53;1087027;54;19950;-81
2023/05/04 10:52:11;;;;;;;;;;;;;;;24.47;28.42;100071.78;1086094;54;19951;-79
2023/05/04 10:53:13;;;;;;;;;;;;;;;24.27;28.23;100067.47;1085152;46;19977;-80
2023/05/04 10:54:20;;;;;;;;;;;;;;;24.24;28.90;100067.94;1086297;54;19950;-77
2023/05/04 10:55:25;;;;;;;;;;;;;;;24.26;28.47;100055.72;1086620;54;20802;-78
2023/05/04 10:56:29;;;;;;;;;;;;;;;24.29;28.56;100057.13;1086611;54;19969;-79
2023/05/04 10:57:30;;;;;;;;;;;;;;;24.26;28.61;100052.97;1086378;54;19958;-78
2023/05/04 10:58:34;;;;;;;;;;;;;;;24.17;28.17;100046.19;1086355;54;19949;-78
2023/05/04 10:59:36;;;;;;;;;;;;;;;24.33;28.49;100052.88;1086392;54;19950;-80
2023/05/04 11:00:41;;;;;;;;;;;;;;;24.15;28.67;100056.53;1086441;54;20646;-79
2023/05/04 11:01:42;;;;;;;;;;;;;;;24.02;28.41;100046.66;1086527;54;19966;-75
2023/05/04 11:02:49;;;;;;;;;;;;;;;23.77;28.54;100042.16;1086883;46;19950;-75
2023/05/04 11:03:50;;;;;;;;;;;;;;;23.70;28.22;100054.22;1086509;54;20018;-76
2023/05/04 11:05:02;;;;;;;;;;;;;;;23.83;28.38;100045.88;1086275;54;19942;-75
2023/05/04 11:06:16;;;;;;;;;;;;;;;23.72;28.17;100044.75;1086150;54;19950;-75
2023/05/04 11:07:17;;;;;;;;;;;;;;;23.81;28.21;100043.34;1086849;39;20660;-76
2023/05/04 11:08:22;;;;;;;;;;;;;;;23.82;28.31;100036.81;1086361;54;19942;-75
2023/05/04 11:09:25;;;;;;;;;;;;;;;23.82;27.71;100036.00;1086240;54;20745;-76
2023/05/04 11:10:29;;;;;;;;;;;;;;;23.55;27.92;100038.28;1086450;54;19958;-76
2023/05/04 11:11:35;;;;;;;;;;;;;;;23.47;28.56;100048.44;1086604;54;19949;-76
2023/05/04 11:12:39;;;;;;;;;;;;;;;23.38;28.15;100047.09;1086495;54;19951;-77
2023/05/04 11:13:45;;;;;;;;;;;;;;;23.56;28.09;100040.78;1086522;54;19969;-78
2023/05/04 11:14:49;;;;;;;;;;;;;;;23.63;27.87;100035.22;1086296;54;19970;-77
2023/05/04 11:15:51;;;;;;;;;;;;;;;23.68;28.17;100035.38;1086497;54;19946;-79
2023/05/04 11:16:55;;;;;;;;;;;;;;;23.64;28.26;100034.16;1086174;54;19942;-78
2023/05/04 11:17:58;;;;;;;;;;;;;;;23.44;28.67;100029.00;1087305;39;20436;-77
2023/05/04 11:19:08;;;;;;;;;;;;;;;23.64;28.47;100034.16;1086432;39;20396;-78
2023/05/04 11:20:10;;;;;;;;;;;;;;;23.63;28.41;100033.34;1086148;54;19950;-78
2023/05/04 11:21:14;;;;;;;;;;;;;;;23.30;28.93;100041.97;1087083;39;20334;-76
2023/05/04 11:22:15;;;;;;;;;;;;;;;23.11;29.07;100044.69;1085602;54;19951;-77
2023/05/04 11:23:19;;;;;;;;;;;;;;;23.19;29.03;100040.84;1086724;39;20416;-76
2023/05/04 11:24:22;;;;;;;;;;;;;;;23.17;29.18;100041.03;1085923;54;19950;-75
2023/05/04 11:25:26;;;;;;;;;;;;;;;23.21;29.40;100038.72;1086092;54;19950;-77
2023/05/04 11:26:30;;;;;;;;;;;;;;;23.08;29.43;100034.22;1086167;54;19969;-78
2023/05/04 11:27:31;;;;;;;;;;;;;;;23.14;29.17;100036.06;1086032;54;19950;-80
2023/05/04 11:28:36;;;;;;;;;;;;;;;23.36;29.42;100035.59;1086236;54;20031;-79
2023/05/04 11:29:39;;;;;;;;;;;;;;;23.48;29.12;100028.28;1086243;54;19943;-78
2023/05/04 11:30:45;;;;;;;;;;;;;;;23.46;28.75;100030.41;1086330;54;19954;-78
2023/05/04 11:31:55;;;;;;;;;;;;;;;23.44;28.84;100027.06;1086404;54;19966;-76
2023/05/04 11:33:03;;;;;;;;;;;;;;;23.71;28.92;100023.97;1086065;54;19943;-78
2023/05/04 11:34:05;;;;;;;;;;;;;;;23.60;28.00;100019.34;1086054;54;20022;-80
2023/05/04 11:35:10;;;;;;;;;;;;;;;23.64;28.47;100020.50;1085950;54;20015;-79
2023/05/04 11:36:14;;;;;;;;;;;;;;;23.81;28.11;100018.78;1086188;54;19947;-80
2023/05/04 11:37:15;;;;;;;;;;;;;;;23.91;28.29;100014.66;1085965;54;19951;-76
2023/05/04 11:38:20;;;;;;;;;;;;;;;23.90;28.53;100023.94;1086285;54;19947;-77
2023/05/04 11:39:25;;;;;;;;;;;;;;;23.81;28.38;100021.50;1088152;39;20471;-76
2023/05/04 11:40:29;;;;;;;;;;;;;;;23.84;28.24;100015.59;1086626;54;19965;-79
2023/05/04 11:41:30;;;;;;;;;;;;;;;23.84;28.21;100012.88;1086542;54;19966;-77
2023/05/04 11:42:35;;;;;;;;;;;;;;;23.91;28.08;100014.66;1086535;46;19973;-77
2023/05/04 11:43:39;;;;;;;;;;;;;;;23.83;28.35;100013.94;1086365;54;19966;-77
2023/05/04 11:44:40;;;;;;;;;;;;;;;23.93;27.70;100015.25;1087210;39;20871;-77
2023/05/04 11:45:47;;;;;;;;;;;;;;;23.97;27.78;100011.03;1086386;47;19985;-77
2023/05/04 11:46:51;;;;;;;;;;;;;;;23.93;28.22;100007.06;1086283;54;19969;-77
2023/05/04 11:47:56;;;;;;;;;;;;;;;23.82;27.89;100009.53;1086263;54;19958;-78
2023/05/04 11:49:03;;;;;;;;;;;;;;;23.66;27.74;100012.94;1086288;54;19950;-76
2023/05/04 11:50:06;;;;;;;;;;;;;;;23.66;28.05;100008.28;1086509;54;19973;-77
2023/05/04 11:51:09;;;;;;;;;;;;;;;23.76;27.94;100002.28;1086508;54;19949;-78
2023/05/04 11:52:11;;;;;;;;;;;;;;;23.69;27.75;100007.03;1086231;54;19954;-78
2023/05/04 11:53:20;;;;;;;;;;;;;;;23.76;27.76;99999.56;1086452;54;19951;-76
2023/05/04 11:54:21;;;;;;;;;;;;;;;23.78;27.78;100002.91;1086499;54;19942;-77
2023/05/04 11:55:29;;;;;;;;;;;;;;;23.82;27.70;99995.88;1086559;54;20018;-78
2023/05/04 11:56:42;;;;;;;;;;;;;;;23.88;27.75;100001.50;1086458;54;19962;-77
2023/05/04 11:57:46;;;;;;;;;;;;;;;23.75;27.73;99995.16;1086524;54;19949;-77
2023/05/04 11:58:50;;;;;;;;;;;;;;;23.83;28.13;99994.81;1086784;54;19942;-76
2023/05/04 11:59:51;;;;;;;;;;;;;;;23.83;27.48;99996.75;1086650;54;19956;-77
2023/05/04 12:00:59;;;;;;;;;;;;;;;23.79;27.36;100001.84;1086696;54;19954;-77
2023/05/04 12:02:03;;;;;;;;;;;;;;;23.85;26.78;100000.06;1086891;54;20002;-78
2023/05/04 12:03:07;;;;;;;;;;;;;;;23.95;27.15;99994.06;1087117;39;20199;-76
2023/05/04 12:04:13;;;;;;;;;;;;;;;23.81;26.85;99990.69;1087029;54;19943;-76
2023/05/04 12:05:15;;;;;;;;;;;;;;;23.64;26.97;99988.63;1086674;54;19973;-76
2023/05/04 12:06:19;;;;;;;;;;;;;;;23.75;27.13;99988.88;1086827;46;20026;-77
2023/05/04 12:07:21;;;;;;;;;;;;;;;23.77;27.25;99981.28;1087761;54;19943;-77
2023/05/04 12:08:29;;;;;;;;;;;;;;;23.85;26.97;99989.16;1087995;54;19950;-77
2023/05/04 12:09:30;;;;;;;;;;;;;;;23.91;26.78;99984.63;1089562;47;19930;-78
2023/05/04 12:10:34;;;;;;;;;;;;;;;24.08;27.15;99985.66;1087569;39;20203;-76
2023/05/04 12:11:39;;;;;;;;;;;;;;;24.19;26.71;99977.69;1087299;54;19958;-77
2023/05/04 12:12:40;;;;;;;;;;;;;;;24.22;26.81;99977.22;1088150;47;19943;-79
2023/05/04 12:13:45;;;;;;;;;;;;;;;24.24;26.67;99981.38;1086918;54;19943;-78
2023/05/04 12:14:46;;;;;;;;;;;;;;;24.13;26.70;99974.84;1086586;54;19950;-79
2023/05/04 12:15:50;;;;;;;;;;;;;;;23.97;26.82;99978.28;1086511;47;19947;-77
2023/05/04 12:17:00;;;;;;;;;;;;;;;23.69;27.18;99979.75;1086068;39;20703;-77
2023/05/04 12:18:04;;;;;;;;;;;;;;;23.57;27.33;99982.41;1084653;54;19951;-75
2023/05/04 12:19:09;;;;;;;;;;;;;;;23.55;27.55;99983.72;1085241;54;19943;-74
2023/05/04 12:20:21;;;;;;;;;;;;;;;23.48;27.50;99983.81;1086250;54;19949;-78
2023/05/04 12:21:25;;;;;;;;;;;;;;;23.50;27.35;99976.22;1086123;54;19966;-79
2023/05/04 12:22:27;;;;;;;;;;;;;;;23.61;26.96;99969.97;1085814;54;19951;-77
2023/05/04 12:23:31;;;;;;;;;;;;;;;23.77;26.90;99971.22;1085645;54;19950;-77
2023/05/04 12:24:35;;;;;;;;;;;;;;;23.87;26.83;99967.91;1085407;54;19950;-78
2023/05/04 12:25:39;;;;;;;;;;;;;;;23.90;26.58;99969.34;1085699;54;20029;-77
2023/05/04 12:26:43;;;;;;;;;;;;;;;23.94;26.30;99973.25;1085472;54;19955;-78
2023/05/04 12:27:45;;;;;;;;;;;;;;;23.94;26.41;99970.53;1085922;54;19950;-79
2023/05/04 12:28:48;;;;;;;;;;;;;;;24.02;26.26;99966.66;1085484;54;20024;-78
2023/05/04 12:29:53;;;;;;;;;;;;;;;24.10;26.00;99963.56;1085696;54;19950;-78
2023/05/04 12:30:58;;;;;;;;;;;;;;;24.20;26.24;99957.50;1085599;54;19951;-78
2023/05/04 12:32:02;;;;;;;;;;;;;;;24.28;25.84;99965.34;1086273;39;20511;-80
2023/05/04 12:33:05;;;;;;;;;;;;;;;24.06;26.56;99963.22;1085926;54;19965;-81
2023/05/04 12:34:09;;;;;;;;;;;;;;;23.78;27.27;99964.69;1086095;54;19943;-77
2023/05/04 12:35:15;;;;;;;;;;;;;;;23.86;27.34;99968.13;1085729;54;19973;-77
2023/05/04 12:36:17;;;;;;;;;;;;;;;23.80;27.38;99962.56;1085671;54;19957;-78
2023/05/04 12:37:21;;;;;;;;;;;;;;;23.74;27.50;99976.31;1086081;54;19942;-77
2023/05/04 12:38:25;;;;;;;;;;;;;;;23.88;26.96;99960.56;1086079;54;19946;-76
2023/05/04 12:39:28;;;;;;;;;;;;;;;23.97;27.05;99954.53;1086560;54;19981;-76
2023/05/04 12:40:32;;;;;;;;;;;;;;;24.07;26.43;99953.13;1085907;54;19947;-75
2023/05/04 12:41:36;;;;;;;;;;;;;;;24.15;25.85;99958.22;1085968;54;19951;-76
2023/05/04 12:42:41;;;;;;;;;;;;;;;24.08;25.81;99952.06;1085878;54;19958;-76
2023/05/04 12:43:44;;;;;;;;;;;;;;;24.09;26.28;99949.06;1086646;54;19949;-78
2023/05/04 12:44:46;;;;;;;;;;;;;;;24.00;25.69;99947.75;1086751;54;19958;-78
2023/05/04 12:45:49;;;;;;;;;;;;;;;24.04;25.83;99948.97;1086719;54;19950;-79
2023/05/04 12:46:53;;;;;;;;;;;;;;;24.07;25.74;99937.59;1086840;54;20536;-78
2023/05/04 12:47:58;;;;;;;;;;;;;;;24.26;26.21;99946.47;1086742;54;19951;-76
2023/05/04 12:49:01;;;;;;;;;;;;;;;24.37;26.38;99944.78;1086486;54;19946;-78
2023/05/04 12:50:04;;;;;;;;;;;;;;;24.37;26.16;99942.06;1086016;54;19947;-79
2023/05/04 12:51:10;;;;;;;;;;;;;;;24.47;26.18;99941.47;1087118;39;20198;-79
2023/05/04 12:52:11;;;;;;;;;;;;;;;24.38;26.61;99943.72;1086338;54;19947;-79
2023/05/04 12:53:15;;;;;;;;;;;;;;;24.35;26.88;99938.75;1086329;54;19957;-79
2023/05/04 12:54:19;;;;;;;;;;;;;;;24.38;26.71;99930.06;1086312;54;19974;-79
2023/05/04 12:55:20;;;;;;;;;;;;;;;24.43;27.25;99926.63;1086207;54;19942;-78
2023/05/04 12:56:24;;;;;;;;;;;;;;;24.48;26.89;99924.00;1086405;54;19950;-79
2023/05/04 12:57:28;;;;;;;;;;;;;;;24.57;26.57;99927.19;1085918;54;19974;-77
2023/05/04 12:58:30;;;;;;;;;;;;;;;24.76;26.17;99920.53;1086771;39;20420;-80
2023/05/04 12:59:33;;;;;;;;;;;;;;;24.42;26.59;99922.22;1086090;54;19951;-79
2023/05/04 13:00:37;;;;;;;;;;;;;;;24.48;26.29;99917.69;1085881;54;19946;-78
2023/05/04 13:01:41;;;;;;;;;;;;;;;24.59;26.28;99919.59;1086200;39;20436;-79
2023/05/04 13:02:45;;;;;;;;;;;;;;;24.67;25.47;99919.22;1085866;54;19951;-77
2023/05/04 13:03:49;;;;;;;;;;;;;;;24.63;25.25;99928.13;1086341;39;20596;-79
2023/05/04 13:04:53;;;;;;;;;;;;;;;24.47;24.79;99927.00;1085846;54;19958;-80
2023/05/04 13:05:58;;;;;;;;;;;;;;;24.42;24.97;99927.69;1086125;39;20763;-78